sensor_id;sensor_type;location;lat;lon;timestamp;P1;durP1;ratioP1;P2;durP2;ratioP2
41099;SDS011;26844;53.686;-6.346;2023-02-01T00:00:26;334.60;;;298.02;;
41099;SDS011;26844;53.686;-6.346;2023-02-01T00:02:51;142.68;;;131.18;;
41099;SDS011;26844;53.686;-6.346;2023-02-01T00:05:17;205.57;;;191.48;;
41099;SDS011;26844;53.686;-6.346;2023-02-01T00:07:42;210.48;;;198.27;;
41099;SDS011;26844;53.686;-6.346;2023-02-01T00:10:07;191.13;;;180.77;;
41099;SDS011;26844;53.686;-6.346;2023-02-01T00:12:33;169.45;;;159.07;;
41099;SDS011;26844;53.686;-6.346;2023-02-01T00:14:58;197.52;;;183.45;;
41099;SDS011;26844;53.686;-6.346;2023-02-01T00:17:23;184.13;;;172.05;;
41099;SDS011;26844;53.686;-6.346;2023-02-01T00:19:49;167.10;;;155.00;;
41099;SDS011;26844;53.686;-6.346;2023-02-01T00:22:14;194.35;;;181.70;;
41099;SDS011;26844;53.686;-6.346;2023-02-01T00:24:40;178.02;;;164.52;;
41099;SDS011;26844;53.686;-6.346;2023-02-01T00:27:05;269.67;;;245.10;;
41099;SDS011;26844;53.686;-6.346;2023-02-01T00:29:30;220.13;;;208.60;;
41099;SDS011;26844;53.686;-6.346;2023-02-01T00:31:55;256.45;;;235.63;;
41099;SDS011;26844;53.686;-6.346;2023-02-01T00:34:21;249.82;;;230.65;;
41099;SDS011;26844;53.686;-6.346;2023-02-01T00:36:46;228.93;;;216.35;;
41099;SDS011;26844;53.686;-6.346;2023-02-01T00:39:11;217.25;;;204.98;;
41099;SDS011;26844;53.686;-6.346;2023-02-01T00:41:37;224.27;;;205.30;;
41099;SDS011;26844;53.686;-6.346;2023-02-01T00:44:03;219.20;;;200.93;;
41099;SDS011;26844;53.686;-6.346;2023-02-01T00:46:28;278.67;;;251.68;;
41099;SDS011;26844;53.686;-6.346;2023-02-01T00:48:53;185.32;;;170.93;;
41099;SDS011;26844;53.686;-6.346;2023-02-01T00:51:20;221.32;;;204.02;;
41099;SDS011;26844;53.686;-6.346;2023-02-01T00:53:46;167.20;;;157.55;;
41099;SDS011;26844;53.686;-6.346;2023-02-01T00:56:11;135.63;;;124.47;;
41099;SDS011;26844;53.686;-6.346;2023-02-01T00:58:37;183.32;;;173.85;;
41099;SDS011;26844;53.686;-6.346;2023-02-01T01:03:28;173.43;;;164.50;;
41099;SDS011;26844;53.686;-6.346;2023-02-01T01:05:58;148.18;;;138.05;;
41099;SDS011;26844;53.686;-6.346;2023-02-01T01:08:23;295.95;;;266.88;;
41099;SDS011;26844;53.686;-6.346;2023-02-01T01:10:48;166.20;;;155.68;;
41099;SDS011;26844;53.686;-6.346;2023-02-01T01:13:14;176.85;;;167.80;;
41099;SDS011;26844;53.686;-6.346;2023-02-01T01:15:39;187.73;;;174.35;;
41099;SDS011;26844;53.686;-6.346;2023-02-01T01:18:05;190.45;;;180.40;;
41099;SDS011;26844;53.686;-6.346;2023-02-01T01:20:30;161.85;;;151.80;;
41099;SDS011;26844;53.686;-6.346;2023-02-01T01:22:56;193.82;;;183.38;;
41099;SDS011;26844;53.686;-6.346;2023-02-01T01:25:21;193.93;;;184.63;;
41099;SDS011;26844;53.686;-6.346;2023-02-01T01:27:46;126.45;;;120.07;;
41099;SDS011;26844;53.686;-6.346;2023-02-01T01:30:12;122.90;;;114.13;;
41099;SDS011;26844;53.686;-6.346;2023-02-01T01:32:37;100.13;;;94.47;;
41099;SDS011;26844;53.686;-6.346;2023-02-01T01:35:02;104.78;;;98.85;;
41099;SDS011;26844;53.686;-6.346;2023-02-01T01:37:28;89.57;;;83.88;;
41099;SDS011;26844;53.686;-6.346;2023-02-01T01:39:53;88.20;;;81.57;;
41099;SDS011;26844;53.686;-6.346;2023-02-01T01:42:20;129.02;;;119.25;;
41099;SDS011;26844;53.686;-6.346;2023-02-01T01:47:39;139.95;;;126.93;;
41099;SDS011;26844;53.686;-6.346;2023-02-01T01:50:09;98.03;;;92.47;;
41099;SDS011;26844;53.686;-6.346;2023-02-01T01:52:35;118.82;;;110.63;;
41099;SDS011;26844;53.686;-6.346;2023-02-01T01:55:01;73.15;;;68.50;;
41099;SDS011;26844;53.686;-6.346;2023-02-01T01:57:28;108.18;;;102.10;;
41099;SDS011;26844;53.686;-6.346;2023-02-01T01:59:59;147.73;;;137.18;;
41099;SDS011;26844;53.686;-6.346;2023-02-01T02:02:28;85.80;;;79.90;;
41099;SDS011;26844;53.686;-6.346;2023-02-01T02:04:53;79.03;;;72.72;;
41099;SDS011;26844;53.686;-6.346;2023-02-01T02:07:20;138.23;;;126.22;;
41099;SDS011;26844;53.686;-6.346;2023-02-01T02:09:46;133.93;;;122.78;;
41099;SDS011;26844;53.686;-6.346;2023-02-01T02:12:11;66.63;;;61.80;;
41099;SDS011;26844;53.686;-6.346;2023-02-01T02:14:37;67.90;;;63.38;;
41099;SDS011;26844;53.686;-6.346;2023-02-01T02:40:33;56.47;;;52.08;;
41099;SDS011;26844;53.686;-6.346;2023-02-01T02:43:04;68.00;;;62.80;;
41099;SDS011;26844;53.686;-6.346;2023-02-01T02:45:51;76.07;;;70.22;;
41099;SDS011;26844;53.686;-6.346;2023-02-01T02:56:44;178.07;;;162.63;;
41099;SDS011;26844;53.686;-6.346;2023-02-01T02:59:28;59.53;;;54.65;;
41099;SDS011;26844;53.686;-6.346;2023-02-01T03:02:13;38.58;;;35.60;;
41099;SDS011;26844;53.686;-6.346;2023-02-01T03:04:58;69.43;;;63.90;;
41099;SDS011;26844;53.686;-6.346;2023-02-01T03:10:07;76.05;;;70.03;;
41099;SDS011;26844;53.686;-6.346;2023-02-01T03:12:36;108.45;;;99.32;;
41099;SDS011;26844;53.686;-6.346;2023-02-01T03:15:32;69.03;;;64.35;;
41099;SDS011;26844;53.686;-6.346;2023-02-01T03:17:58;97.22;;;89.05;;
41099;SDS011;26844;53.686;-6.346;2023-02-01T03:20:26;86.00;;;79.80;;
41099;SDS011;26844;53.686;-6.346;2023-02-01T03:22:52;73.78;;;68.18;;
41099;SDS011;26844;53.686;-6.346;2023-02-01T03:25:21;156.77;;;142.80;;
41099;SDS011;26844;53.686;-6.346;2023-02-01T03:27:49;77.22;;;71.55;;
41099;SDS011;26844;53.686;-6.346;2023-02-01T03:32:42;51.50;;;47.33;;
41099;SDS011;26844;53.686;-6.346;2023-02-01T03:43:28;60.13;;;55.05;;
41099;SDS011;26844;53.686;-6.346;2023-02-01T03:45:56;158.03;;;145.50;;
41099;SDS011;26844;53.686;-6.346;2023-02-01T03:48:23;64.90;;;60.85;;
41099;SDS011;26844;53.686;-6.346;2023-02-01T03:50:52;145.43;;;132.73;;
41099;SDS011;26844;53.686;-6.346;2023-02-01T03:53:19;60.55;;;56.03;;
41099;SDS011;26844;53.686;-6.346;2023-02-01T03:55:45;151.35;;;137.48;;
41099;SDS011;26844;53.686;-6.346;2023-02-01T04:00:36;58.15;;;54.17;;
41099;SDS011;26844;53.686;-6.346;2023-02-01T04:03:02;69.43;;;64.22;;
41099;SDS011;26844;53.686;-6.346;2023-02-01T04:05:28;157.05;;;141.13;;
41099;SDS011;26844;53.686;-6.346;2023-02-01T04:07:55;247.70;;;225.32;;
41099;SDS011;26844;53.686;-6.346;2023-02-01T04:10:20;106.22;;;96.65;;
41099;SDS011;26844;53.686;-6.346;2023-02-01T04:12:45;155.82;;;141.55;;
41099;SDS011;26844;53.686;-6.346;2023-02-01T04:15:11;114.40;;;106.97;;
41099;SDS011;26844;53.686;-6.346;2023-02-01T04:17:36;108.38;;;101.70;;
41099;SDS011;26844;53.686;-6.346;2023-02-01T04:20:01;102.25;;;93.95;;
41099;SDS011;26844;53.686;-6.346;2023-02-01T04:22:26;145.35;;;133.90;;
41099;SDS011;26844;53.686;-6.346;2023-02-01T04:24:52;142.13;;;129.68;;
41099;SDS011;26844;53.686;-6.346;2023-02-01T04:27:17;118.50;;;110.70;;
41099;SDS011;26844;53.686;-6.346;2023-02-01T04:29:43;135.15;;;124.63;;
41099;SDS011;26844;53.686;-6.346;2023-02-01T04:32:10;203.65;;;186.57;;
41099;SDS011;26844;53.686;-6.346;2023-02-01T04:34:35;149.63;;;141.35;;
41099;SDS011;26844;53.686;-6.346;2023-02-01T04:37:00;129.45;;;122.20;;
41099;SDS011;26844;53.686;-6.346;2023-02-01T04:39:26;190.00;;;176.63;;
41099;SDS011;26844;53.686;-6.346;2023-02-01T04:41:51;194.48;;;180.52;;
41099;SDS011;26844;53.686;-6.346;2023-02-01T04:44:17;387.08;;;349.00;;
41099;SDS011;26844;53.686;-6.346;2023-02-01T04:46:43;259.77;;;238.68;;
41099;SDS011;26844;53.686;-6.346;2023-02-01T04:49:09;204.30;;;191.00;;
41099;SDS011;26844;53.686;-6.346;2023-02-01T04:51:34;191.07;;;179.15;;
41099;SDS011;26844;53.686;-6.346;2023-02-01T04:54:00;251.60;;;231.73;;
41099;SDS011;26844;53.686;-6.346;2023-02-01T04:56:25;145.77;;;138.07;;
41099;SDS011;26844;53.686;-6.346;2023-02-01T04:58:50;163.77;;;153.32;;
41099;SDS011;26844;53.686;-6.346;2023-02-01T05:01:16;202.00;;;188.30;;
41099;SDS011;26844;53.686;-6.346;2023-02-01T05:03:41;384.73;;;350.25;;
41099;SDS011;26844;53.686;-6.346;2023-02-01T05:06:06;140.93;;;132.60;;
41099;SDS011;26844;53.686;-6.346;2023-02-01T05:08:31;145.40;;;136.70;;
41099;SDS011;26844;53.686;-6.346;2023-02-01T05:10:57;250.77;;;229.57;;
41099;SDS011;26844;53.686;-6.346;2023-02-01T05:13:23;200.50;;;185.68;;
41099;SDS011;26844;53.686;-6.346;2023-02-01T05:16:07;252.63;;;234.10;;
41099;SDS011;26844;53.686;-6.346;2023-02-01T05:18:32;124.60;;;117.63;;
41099;SDS011;26844;53.686;-6.346;2023-02-01T05:20:58;150.13;;;139.85;;
41099;SDS011;26844;53.686;-6.346;2023-02-01T05:23:23;115.00;;;107.57;;
41099;SDS011;26844;53.686;-6.346;2023-02-01T05:25:48;125.18;;;114.53;;
41099;SDS011;26844;53.686;-6.346;2023-02-01T05:28:13;147.38;;;136.05;;
41099;SDS011;26844;53.686;-6.346;2023-02-01T05:30:39;114.72;;;108.45;;
41099;SDS011;26844;53.686;-6.346;2023-02-01T05:33:04;111.43;;;104.68;;
41099;SDS011;26844;53.686;-6.346;2023-02-01T05:35:29;132.52;;;123.03;;
41099;SDS011;26844;53.686;-6.346;2023-02-01T05:37:55;156.85;;;143.60;;
41099;SDS011;26844;53.686;-6.346;2023-02-01T05:40:20;115.07;;;108.00;;
41099;SDS011;26844;53.686;-6.346;2023-02-01T05:42:45;85.15;;;79.90;;
41099;SDS011;26844;53.686;-6.346;2023-02-01T05:45:10;104.43;;;96.30;;
41099;SDS011;26844;53.686;-6.346;2023-02-01T05:47:36;130.82;;;118.80;;
41099;SDS011;26844;53.686;-6.346;2023-02-01T05:50:01;122.90;;;112.80;;
41099;SDS011;26844;53.686;-6.346;2023-02-01T05:52:27;156.85;;;144.73;;
41099;SDS011;26844;53.686;-6.346;2023-02-01T05:54:52;190.57;;;173.93;;
41099;SDS011;26844;53.686;-6.346;2023-02-01T05:57:17;87.50;;;81.60;;
41099;SDS011;26844;53.686;-6.346;2023-02-01T05:59:43;283.83;;;260.58;;
41099;SDS011;26844;53.686;-6.346;2023-02-01T06:02:11;96.55;;;89.82;;
41099;SDS011;26844;53.686;-6.346;2023-02-01T06:04:36;239.68;;;218.27;;
41099;SDS011;26844;53.686;-6.346;2023-02-01T06:07:02;97.05;;;91.18;;
41099;SDS011;26844;53.686;-6.346;2023-02-01T06:09:27;125.30;;;117.55;;
41099;SDS011;26844;53.686;-6.346;2023-02-01T06:11:53;319.73;;;288.30;;
41099;SDS011;26844;53.686;-6.346;2023-02-01T06:14:18;77.95;;;73.15;;
41099;SDS011;26844;53.686;-6.346;2023-02-01T06:16:43;303.17;;;272.55;;
41099;SDS011;26844;53.686;-6.346;2023-02-01T06:19:10;221.50;;;202.18;;
41099;SDS011;26844;53.686;-6.346;2023-02-01T06:21:35;229.50;;;210.52;;
41099;SDS011;26844;53.686;-6.346;2023-02-01T06:24:01;122.45;;;115.38;;
41099;SDS011;26844;53.686;-6.346;2023-02-01T06:26:26;288.58;;;264.55;;
41099;SDS011;26844;53.686;-6.346;2023-02-01T06:28:53;211.17;;;193.33;;
41099;SDS011;26844;53.686;-6.346;2023-02-01T06:31:18;130.57;;;122.30;;
41099;SDS011;26844;53.686;-6.346;2023-02-01T06:33:44;205.98;;;193.25;;
41099;SDS011;26844;53.686;-6.346;2023-02-01T06:36:10;153.10;;;144.10;;
41099;SDS011;26844;53.686;-6.346;2023-02-01T06:38:37;123.80;;;115.35;;
41099;SDS011;26844;53.686;-6.346;2023-02-01T06:41:03;114.40;;;107.05;;
41099;SDS011;26844;53.686;-6.346;2023-02-01T06:43:29;85.75;;;79.65;;
41099;SDS011;26844;53.686;-6.346;2023-02-01T06:46:05;121.55;;;113.88;;
41099;SDS011;26844;53.686;-6.346;2023-02-01T06:48:30;102.78;;;95.00;;
41099;SDS011;26844;53.686;-6.346;2023-02-01T06:50:56;73.90;;;69.43;;
41099;SDS011;26844;53.686;-6.346;2023-02-01T06:53:21;151.75;;;138.90;;
41099;SDS011;26844;53.686;-6.346;2023-02-01T06:55:56;129.48;;;119.55;;
41099;SDS011;26844;53.686;-6.346;2023-02-01T06:58:22;63.75;;;58.78;;
41099;SDS011;26844;53.686;-6.346;2023-02-01T07:00:47;152.23;;;139.00;;
41099;SDS011;26844;53.686;-6.346;2023-02-01T07:03:12;135.80;;;123.57;;
41099;SDS011;26844;53.686;-6.346;2023-02-01T07:05:37;82.78;;;75.82;;
41099;SDS011;26844;53.686;-6.346;2023-02-01T07:08:03;218.05;;;197.27;;
41099;SDS011;26844;53.686;-6.346;2023-02-01T07:10:28;59.22;;;55.25;;
41099;SDS011;26844;53.686;-6.346;2023-02-01T07:12:56;232.57;;;212.55;;
41099;SDS011;26844;53.686;-6.346;2023-02-01T07:15:21;94.93;;;87.60;;
41099;SDS011;26844;53.686;-6.346;2023-02-01T07:17:46;85.80;;;79.00;;
41099;SDS011;26844;53.686;-6.346;2023-02-01T07:20:12;110.30;;;102.10;;
41099;SDS011;26844;53.686;-6.346;2023-02-01T07:22:37;84.88;;;78.45;;
41099;SDS011;26844;53.686;-6.346;2023-02-01T07:25:03;78.05;;;73.95;;
41099;SDS011;26844;53.686;-6.346;2023-02-01T07:27:28;93.18;;;87.60;;
41099;SDS011;26844;53.686;-6.346;2023-02-01T07:29:53;148.93;;;135.65;;
41099;SDS011;26844;53.686;-6.346;2023-02-01T07:32:20;171.68;;;158.60;;
41099;SDS011;26844;53.686;-6.346;2023-02-01T07:34:45;103.68;;;97.05;;
41099;SDS011;26844;53.686;-6.346;2023-02-01T07:37:11;123.43;;;113.60;;
41099;SDS011;26844;53.686;-6.346;2023-02-01T07:39:36;76.03;;;71.40;;
41099;SDS011;26844;53.686;-6.346;2023-02-01T07:42:01;132.10;;;120.95;;
41099;SDS011;26844;53.686;-6.346;2023-02-01T07:44:26;116.32;;;107.05;;
41099;SDS011;26844;53.686;-6.346;2023-02-01T07:46:52;71.05;;;66.97;;
41099;SDS011;26844;53.686;-6.346;2023-02-01T07:49:17;177.13;;;163.13;;
41099;SDS011;26844;53.686;-6.346;2023-02-01T07:51:42;372.83;;;338.65;;
41099;SDS011;26844;53.686;-6.346;2023-02-01T07:54:08;93.57;;;86.25;;
41099;SDS011;26844;53.686;-6.346;2023-02-01T07:56:33;77.30;;;72.57;;
41099;SDS011;26844;53.686;-6.346;2023-02-01T07:58:58;162.50;;;146.98;;
41099;SDS011;26844;53.686;-6.346;2023-02-01T08:01:26;278.02;;;253.32;;
41099;SDS011;26844;53.686;-6.346;2023-02-01T08:03:52;184.07;;;167.43;;
41099;SDS011;26844;53.686;-6.346;2023-02-01T08:06:18;78.43;;;73.38;;
41099;SDS011;26844;53.686;-6.346;2023-02-01T08:08:44;77.03;;;72.03;;
41099;SDS011;26844;53.686;-6.346;2023-02-01T08:11:10;63.80;;;60.05;;
41099;SDS011;26844;53.686;-6.346;2023-02-01T08:13:35;90.43;;;85.20;;
41099;SDS011;26844;53.686;-6.346;2023-02-01T08:16:01;77.43;;;72.38;;
41099;SDS011;26844;53.686;-6.346;2023-02-01T08:18:27;92.07;;;87.10;;
41099;SDS011;26844;53.686;-6.346;2023-02-01T08:20:52;110.80;;;103.40;;
41099;SDS011;26844;53.686;-6.346;2023-02-01T08:23:17;97.38;;;92.25;;
41099;SDS011;26844;53.686;-6.346;2023-02-01T08:25:43;113.40;;;107.05;;
41099;SDS011;26844;53.686;-6.346;2023-02-01T08:28:09;113.05;;;106.05;;
41099;SDS011;26844;53.686;-6.346;2023-02-01T08:30:35;85.78;;;80.68;;
41099;SDS011;26844;53.686;-6.346;2023-02-01T08:33:01;96.63;;;91.32;;
41099;SDS011;26844;53.686;-6.346;2023-02-01T08:35:26;86.63;;;81.03;;
41099;SDS011;26844;53.686;-6.346;2023-02-01T08:37:51;71.95;;;67.43;;
41099;SDS011;26844;53.686;-6.346;2023-02-01T08:40:16;72.55;;;68.03;;
41099;SDS011;26844;53.686;-6.346;2023-02-01T08:42:42;64.57;;;60.33;;
41099;SDS011;26844;53.686;-6.346;2023-02-01T08:45:16;70.07;;;65.65;;
41099;SDS011;26844;53.686;-6.346;2023-02-01T08:47:42;59.53;;;55.67;;
41099;SDS011;26844;53.686;-6.346;2023-02-01T08:50:07;70.43;;;66.30;;
41099;SDS011;26844;53.686;-6.346;2023-02-01T08:52:33;67.65;;;63.83;;
41099;SDS011;26844;53.686;-6.346;2023-02-01T08:54:58;62.28;;;58.22;;
41099;SDS011;26844;53.686;-6.346;2023-02-01T08:57:24;65.45;;;61.08;;
41099;SDS011;26844;53.686;-6.346;2023-02-01T08:59:49;100.15;;;93.88;;
41099;SDS011;26844;53.686;-6.346;2023-02-01T09:02:15;168.68;;;159.25;;
41099;SDS011;26844;53.686;-6.346;2023-02-01T09:04:41;135.75;;;127.90;;
41099;SDS011;26844;53.686;-6.346;2023-02-01T09:07:07;90.90;;;85.40;;
41099;SDS011;26844;53.686;-6.346;2023-02-01T09:09:32;74.72;;;69.85;;
41099;SDS011;26844;53.686;-6.346;2023-02-01T09:11:57;58.78;;;55.00;;
41099;SDS011;26844;53.686;-6.346;2023-02-01T09:14:23;61.88;;;58.15;;
41099;SDS011;26844;53.686;-6.346;2023-02-01T09:16:48;63.00;;;59.25;;
41099;SDS011;26844;53.686;-6.346;2023-02-01T09:19:13;67.38;;;63.33;;
41099;SDS011;26844;53.686;-6.346;2023-02-01T09:21:39;69.97;;;64.18;;
41099;SDS011;26844;53.686;-6.346;2023-02-01T09:24:04;62.50;;;58.80;;
41099;SDS011;26844;53.686;-6.346;2023-02-01T09:26:29;118.28;;;109.55;;
41099;SDS011;26844;53.686;-6.346;2023-02-01T09:28:55;88.45;;;83.25;;
41099;SDS011;26844;53.686;-6.346;2023-02-01T09:31:20;93.22;;;85.35;;
41099;SDS011;26844;53.686;-6.346;2023-02-01T09:33:45;93.15;;;86.32;;
41099;SDS011;26844;53.686;-6.346;2023-02-01T09:36:11;102.93;;;97.30;;
41099;SDS011;26844;53.686;-6.346;2023-02-01T09:38:36;158.38;;;148.25;;
41099;SDS011;26844;53.686;-6.346;2023-02-01T09:41:06;170.52;;;157.55;;
41099;SDS011;26844;53.686;-6.346;2023-02-01T09:48:31;120.63;;;114.03;;
41099;SDS011;26844;53.686;-6.346;2023-02-01T09:50:57;159.63;;;149.52;;
41099;SDS011;26844;53.686;-6.346;2023-02-01T09:53:35;147.90;;;137.45;;
41099;SDS011;26844;53.686;-6.346;2023-02-01T09:56:04;142.38;;;134.18;;
41099;SDS011;26844;53.686;-6.346;2023-02-01T09:58:41;190.73;;;176.35;;
41099;SDS011;26844;53.686;-6.346;2023-02-01T10:01:13;163.70;;;154.70;;
41099;SDS011;26844;53.686;-6.346;2023-02-01T10:03:40;189.00;;;177.60;;
41099;SDS011;26844;53.686;-6.346;2023-02-01T10:10:57;199.88;;;186.52;;
41099;SDS011;26844;53.686;-6.346;2023-02-01T10:13:51;183.60;;;173.82;;
41099;SDS011;26844;53.686;-6.346;2023-02-01T10:21:42;191.25;;;177.73;;
41099;SDS011;26844;53.686;-6.346;2023-02-01T10:24:17;141.70;;;132.75;;
41099;SDS011;26844;53.686;-6.346;2023-02-01T10:26:46;184.25;;;174.68;;
41099;SDS011;26844;53.686;-6.346;2023-02-01T10:29:18;180.00;;;166.23;;
41099;SDS011;26844;53.686;-6.346;2023-02-01T10:31:44;201.13;;;185.43;;
41099;SDS011;26844;53.686;-6.346;2023-02-01T10:36:41;244.07;;;221.77;;
41099;SDS011;26844;53.686;-6.346;2023-02-01T10:39:08;236.93;;;218.63;;
41099;SDS011;26844;53.686;-6.346;2023-02-01T10:41:35;158.63;;;149.48;;
41099;SDS011;26844;53.686;-6.346;2023-02-01T10:44:03;218.50;;;203.00;;
41099;SDS011;26844;53.686;-6.346;2023-02-01T10:46:29;257.10;;;237.18;;
41099;SDS011;26844;53.686;-6.346;2023-02-01T10:48:55;248.10;;;232.80;;
41099;SDS011;26844;53.686;-6.346;2023-02-01T10:51:24;235.95;;;222.70;;
41099;SDS011;26844;53.686;-6.346;2023-02-01T10:53:55;323.40;;;297.70;;
41099;SDS011;26844;53.686;-6.346;2023-02-01T10:56:23;647.00;;;546.42;;
41099;SDS011;26844;53.686;-6.346;2023-02-01T10:58:48;471.50;;;424.55;;
41099;SDS011;26844;53.686;-6.346;2023-02-01T11:01:19;351.48;;;329.88;;
41099;SDS011;26844;53.686;-6.346;2023-02-01T11:03:51;321.63;;;303.90;;
41099;SDS011;26844;53.686;-6.346;2023-02-01T11:06:30;315.83;;;294.85;;
41099;SDS011;26844;53.686;-6.346;2023-02-01T11:08:59;288.92;;;271.92;;
41099;SDS011;26844;53.686;-6.346;2023-02-01T11:11:25;340.25;;;312.75;;
41099;SDS011;26844;53.686;-6.346;2023-02-01T11:13:55;289.63;;;270.35;;
41099;SDS011;26844;53.686;-6.346;2023-02-01T11:16:20;298.33;;;273.58;;
41099;SDS011;26844;53.686;-6.346;2023-02-01T11:18:46;358.30;;;325.33;;
41099;SDS011;26844;53.686;-6.346;2023-02-01T11:21:17;354.25;;;320.92;;
41099;SDS011;26844;53.686;-6.346;2023-02-01T11:23:43;359.67;;;322.70;;
41099;SDS011;26844;53.686;-6.346;2023-02-01T11:26:11;273.27;;;254.65;;
41099;SDS011;26844;53.686;-6.346;2023-02-01T11:28:38;283.15;;;263.48;;
41099;SDS011;26844;53.686;-6.346;2023-02-01T11:31:06;264.42;;;249.93;;
41099;SDS011;26844;53.686;-6.346;2023-02-01T11:33:35;362.83;;;333.30;;
41099;SDS011;26844;53.686;-6.346;2023-02-01T11:36:08;343.58;;;313.90;;
41099;SDS011;26844;53.686;-6.346;2023-02-01T11:38:34;279.85;;;262.58;;
41099;SDS011;26844;53.686;-6.346;2023-02-01T11:41:17;335.58;;;309.50;;
41099;SDS011;26844;53.686;-6.346;2023-02-01T11:43:58;254.32;;;241.07;;
41099;SDS011;26844;53.686;-6.346;2023-02-01T11:46:34;352.15;;;322.33;;
41099;SDS011;26844;53.686;-6.346;2023-02-01T11:54:34;279.30;;;258.80;;
41099;SDS011;26844;53.686;-6.346;2023-02-01T12:05:01;254.32;;;235.55;;
41099;SDS011;26844;53.686;-6.346;2023-02-01T12:07:39;338.95;;;309.90;;
41099;SDS011;26844;53.686;-6.346;2023-02-01T12:12:43;355.08;;;322.23;;
41099;SDS011;26844;53.686;-6.346;2023-02-01T12:15:16;227.05;;;215.32;;
41099;SDS011;26844;53.686;-6.346;2023-02-01T12:22:55;316.38;;;291.20;;
41099;SDS011;26844;53.686;-6.346;2023-02-01T12:25:30;293.70;;;279.73;;
41099;SDS011;26844;53.686;-6.346;2023-02-01T12:33:12;230.55;;;215.45;;
41099;SDS011;26844;53.686;-6.346;2023-02-01T12:43:11;225.10;;;213.10;;
41099;SDS011;26844;53.686;-6.346;2023-02-01T12:45:41;189.70;;;180.48;;
41099;SDS011;26844;53.686;-6.346;2023-02-01T12:51:12;318.40;;;288.92;;
41099;SDS011;26844;53.686;-6.346;2023-02-01T12:56:32;379.50;;;344.55;;
41099;SDS011;26844;53.686;-6.346;2023-02-01T12:59:01;209.48;;;195.45;;
41099;SDS011;26844;53.686;-6.346;2023-02-01T13:01:39;286.67;;;261.77;;
41099;SDS011;26844;53.686;-6.346;2023-02-01T13:04:17;243.77;;;225.35;;
41099;SDS011;26844;53.686;-6.346;2023-02-01T13:06:45;171.68;;;162.45;;
41099;SDS011;26844;53.686;-6.346;2023-02-01T13:09:26;196.40;;;183.57;;
41099;SDS011;26844;53.686;-6.346;2023-02-01T13:11:53;193.52;;;180.48;;
41099;SDS011;26844;53.686;-6.346;2023-02-01T13:14:25;307.45;;;280.20;;
41099;SDS011;26844;53.686;-6.346;2023-02-01T13:16:56;245.60;;;233.02;;
41099;SDS011;26844;53.686;-6.346;2023-02-01T13:19:35;348.75;;;316.58;;
41099;SDS011;26844;53.686;-6.346;2023-02-01T13:22:15;248.70;;;232.60;;
41099;SDS011;26844;53.686;-6.346;2023-02-01T13:27:09;250.60;;;237.07;;
41099;SDS011;26844;53.686;-6.346;2023-02-01T13:29:36;251.43;;;235.77;;
41099;SDS011;26844;53.686;-6.346;2023-02-01T13:41:56;293.25;;;275.98;;
41099;SDS011;26844;53.686;-6.346;2023-02-01T13:44:28;266.90;;;249.20;;
41099;SDS011;26844;53.686;-6.346;2023-02-01T13:46:55;152.38;;;141.73;;
41099;SDS011;26844;53.686;-6.346;2023-02-01T13:49:28;159.48;;;148.90;;
41099;SDS011;26844;53.686;-6.346;2023-02-01T13:51:56;96.25;;;89.80;;
41099;SDS011;26844;53.686;-6.346;2023-02-01T13:54:29;70.35;;;65.60;;
41099;SDS011;26844;53.686;-6.346;2023-02-01T13:56:55;74.63;;;70.85;;
41099;SDS011;26844;53.686;-6.346;2023-02-01T14:04:48;89.13;;;83.05;;
41099;SDS011;26844;53.686;-6.346;2023-02-01T14:07:21;80.72;;;75.85;;
41099;SDS011;26844;53.686;-6.346;2023-02-01T14:09:47;112.63;;;105.82;;
41099;SDS011;26844;53.686;-6.346;2023-02-01T14:17:41;108.32;;;101.35;;
41099;SDS011;26844;53.686;-6.346;2023-02-01T14:22:50;80.30;;;76.10;;
41099;SDS011;26844;53.686;-6.346;2023-02-01T14:25:16;93.13;;;88.10;;
41099;SDS011;26844;53.686;-6.346;2023-02-01T14:27:41;57.28;;;53.95;;
41099;SDS011;26844;53.686;-6.346;2023-02-01T14:30:07;106.50;;;100.47;;
41099;SDS011;26844;53.686;-6.346;2023-02-01T14:32:37;196.50;;;181.90;;
41099;SDS011;26844;53.686;-6.346;2023-02-01T14:35:06;223.60;;;210.43;;
41099;SDS011;26844;53.686;-6.346;2023-02-01T14:37:34;198.10;;;184.80;;
41099;SDS011;26844;53.686;-6.346;2023-02-01T14:42:32;168.63;;;158.63;;
41099;SDS011;26844;53.686;-6.346;2023-02-01T14:47:54;202.70;;;188.18;;
41099;SDS011;26844;53.686;-6.346;2023-02-01T14:50:39;147.07;;;137.77;;
41099;SDS011;26844;53.686;-6.346;2023-02-01T15:00:53;247.73;;;228.10;;
41099;SDS011;26844;53.686;-6.346;2023-02-01T15:05:50;99.93;;;94.10;;
41099;SDS011;26844;53.686;-6.346;2023-02-01T15:08:21;163.10;;;154.38;;
41099;SDS011;26844;53.686;-6.346;2023-02-01T15:10:49;208.63;;;194.30;;
41099;SDS011;26844;53.686;-6.346;2023-02-01T15:13:19;101.00;;;95.50;;
41099;SDS011;26844;53.686;-6.346;2023-02-01T15:15:45;279.98;;;258.00;;
41099;SDS011;26844;53.686;-6.346;2023-02-01T15:18:14;120.35;;;113.70;;
41099;SDS011;26844;53.686;-6.346;2023-02-01T15:20:40;179.40;;;167.80;;
41099;SDS011;26844;53.686;-6.346;2023-02-01T15:23:14;100.70;;;95.03;;
41099;SDS011;26844;53.686;-6.346;2023-02-01T15:25:40;220.45;;;206.80;;
41099;SDS011;26844;53.686;-6.346;2023-02-01T15:28:08;148.35;;;141.10;;
41099;SDS011;26844;53.686;-6.346;2023-02-01T15:30:35;269.25;;;252.63;;
41099;SDS011;26844;53.686;-6.346;2023-02-01T15:33:16;260.42;;;244.73;;
41099;SDS011;26844;53.686;-6.346;2023-02-01T15:35:46;196.00;;;185.15;;
41099;SDS011;26844;53.686;-6.346;2023-02-01T15:38:45;140.52;;;133.27;;
41099;SDS011;26844;53.686;-6.346;2023-02-01T15:41:17;275.15;;;253.90;;
41099;SDS011;26844;53.686;-6.346;2023-02-01T15:46:15;121.75;;;114.85;;
41099;SDS011;26844;53.686;-6.346;2023-02-01T15:48:53;172.80;;;162.98;;
41099;SDS011;26844;53.686;-6.346;2023-02-01T15:51:20;129.07;;;122.68;;
41099;SDS011;26844;53.686;-6.346;2023-02-01T15:53:50;189.17;;;177.90;;
41099;SDS011;26844;53.686;-6.346;2023-02-01T15:56:16;269.02;;;246.25;;
41099;SDS011;26844;53.686;-6.346;2023-02-01T15:58:46;186.75;;;174.30;;
41099;SDS011;26844;53.686;-6.346;2023-02-01T16:01:13;219.07;;;202.45;;
41099;SDS011;26844;53.686;-6.346;2023-02-01T16:03:40;230.15;;;211.88;;
41099;SDS011;26844;53.686;-6.346;2023-02-01T16:06:10;132.10;;;123.82;;
41099;SDS011;26844;53.686;-6.346;2023-02-01T16:08:36;170.57;;;158.20;;
41099;SDS011;26844;53.686;-6.346;2023-02-01T16:13:33;169.90;;;158.65;;
41099;SDS011;26844;53.686;-6.346;2023-02-01T16:15:58;276.85;;;251.57;;
41099;SDS011;26844;53.686;-6.346;2023-02-01T16:18:26;166.80;;;156.60;;
41099;SDS011;26844;53.686;-6.346;2023-02-01T16:20:52;157.73;;;147.75;;
41099;SDS011;26844;53.686;-6.346;2023-02-01T16:23:17;124.70;;;117.13;;
41099;SDS011;26844;53.686;-6.346;2023-02-01T16:25:43;159.93;;;147.52;;
41099;SDS011;26844;53.686;-6.346;2023-02-01T16:28:09;120.32;;;113.55;;
41099;SDS011;26844;53.686;-6.346;2023-02-01T16:30:34;137.45;;;129.75;;